Time;durP1;ratioP1;P1;durP2;ratioP2;P2;SDS_P1;SDS_P2;PMS_P1;PMS_P2;Temp;Humidity;BMP_temperature;BMP_pressure;BME280_temperature;BME280_humidity;BME280_pressure;Samples;Min_cycle;Max_cycle;Signal;HPM_P1;HPM_P2
2022/04/01 00:02:16;;;;;;;2.50;0.73;;;;;;;;;;5052019;28;20131;-65
2022/04/01 00:04:42;;;;;;;2.47;0.68;;;;;;;;;;5070584;28;20459;-65
2022/04/01 00:07:08;;;;;;;2.10;0.63;;;;;;;;;;5070286;28;20469;-65
2022/04/01 00:09:35;;;;;;;3.10;0.57;;;;;;;;;;5052300;28;20135;-65
2022/04/01 00:12:01;;;;;;;10.50;0.95;;;;;;;;;;5070115;28;20071;-66
2022/04/01 00:14:27;;;;;;;2.25;0.73;;;;;;;;;;5070327;28;20434;-66
2022/04/01 00:16:53;;;;;;;3.40;0.60;;;;;;;;;;5069942;28;20438;-66
2022/04/01 00:19:20;;;;;;;7.70;1.10;;;;;;;;;;5069904;28;20494;-66
2022/04/01 00:21:46;;;;;;;5.93;1.25;;;;;;;;;;5069930;28;20057;-66
2022/04/01 00:24:12;;;;;;;1.55;0.75;;;;;;;;;;5070136;28;20080;-66
2022/04/01 00:26:39;;;;;;;2.30;0.70;;;;;;;;;;5070376;28;20116;-66
2022/04/01 00:29:14;;;;;;;2.35;0.70;;;;;;;;;;5070236;28;20049;-66
2022/04/01 00:31:44;;;;;;;2.30;0.98;;;;;;;;;;5069910;28;20473;-66
2022/04/01 00:34:16;;;;;;;0.85;0.50;;;;;;;;;;5069679;28;20060;-66
2022/04/01 00:36:43;;;;;;;3.83;0.80;;;;;;;;;;5070035;28;20378;-66
2022/04/01 00:39:10;;;;;;;1.88;0.73;;;;;;;;;;5069720;28;20040;-65
2022/04/01 00:41:36;;;;;;;2.67;0.70;;;;;;;;;;5069532;28;20072;-65
2022/04/01 00:44:16;;;;;;;4.00;0.95;;;;;;;;;;5069263;28;20143;-65
2022/04/01 00:46:43;;;;;;;3.95;1.20;;;;;;;;;;5069367;28;20479;-66
2022/04/01 00:49:09;;;;;;;3.22;0.80;;;;;;;;;;5069616;28;20070;-66
2022/04/01 00:51:37;;;;;;;9.07;1.10;;;;;;;;;;5069037;28;20414;-66
2022/04/01 00:54:03;;;;;;;3.47;0.77;;;;;;;;;;5069670;28;20466;-65
2022/04/01 00:56:31;;;;;;;2.05;0.70;;;;;;;;;;5051404;28;20045;-66
2022/04/01 00:58:58;;;;;;;1.90;0.60;;;;;;;;;;5069219;28;20044;-66
2022/04/01 01:01:24;;;;;;;1.40;0.68;;;;;;;;;;5069013;28;20410;-66
2022/04/01 01:03:50;;;;;;;1.65;0.70;;;;;;;;;;5069097;28;20466;-66
2022/04/01 01:06:17;;;;;;;1.20;0.60;;;;;;;;;;5068425;28;20068;-66
2022/04/01 01:08:43;;;;;;;2.65;0.60;;;;;;;;;;5068534;28;20044;-66
2022/04/01 01:11:09;;;;;;;2.42;0.68;;;;;;;;;;5068777;28;20549;-66
2022/04/01 01:13:36;;;;;;;3.92;0.70;;;;;;;;;;5068478;28;20127;-66
2022/04/01 01:16:02;;;;;;;0.73;0.50;;;;;;;;;;5068289;28;20430;-66
2022/04/01 01:18:28;;;;;;;1.10;0.60;;;;;;;;;;5069067;28;20452;-66
2022/04/01 01:20:54;;;;;;;2.22;0.68;;;;;;;;;;5069121;28;20415;-66
2022/04/01 01:23:20;;;;;;;1.70;0.80;;;;;;;;;;5068330;28;20123;-66
2022/04/01 01:25:46;;;;;;;0.80;0.50;;;;;;;;;;5068715;28;20048;-66
2022/04/01 01:28:12;;;;;;;3.03;0.68;;;;;;;;;;5068216;28;20045;-65
2022/04/01 01:30:39;;;;;;;1.77;0.50;;;;;;;;;;5068607;28;20083;-66
2022/04/01 01:33:05;;;;;;;1.88;0.70;;;;;;;;;;5068907;28;20048;-66
2022/04/01 01:35:32;;;;;;;2.85;0.70;;;;;;;;;;5068186;28;20144;-66
2022/04/01 01:37:58;;;;;;;1.40;0.60;;;;;;;;;;5068166;28;20045;-66
2022/04/01 01:40:24;;;;;;;1.30;0.70;;;;;;;;;;5068671;28;20478;-66
2022/04/01 01:42:50;;;;;;;1.63;1.17;;;;;;;;;;5068193;28;20071;-66
2022/04/01 01:45:16;;;;;;;0.93;0.40;;;;;;;;;;5068406;28;20473;-66
2022/04/01 01:47:43;;;;;;;1.67;0.60;;;;;;;;;;5068445;28;20132;-66
2022/04/01 01:55:38;;;;;;;1.35;0.40;;;;;;;;;;5067889;28;20575;-66
2022/04/01 01:58:05;;;;;;;1.50;0.73;;;;;;;;;;5068601;28;20384;-66
2022/04/01 02:00:32;;;;;;;1.15;0.50;;;;;;;;;;5068557;28;20052;-66
2022/04/01 02:02:58;;;;;;;1.95;0.65;;;;;;;;;;5068110;28;20087;-66
2022/04/01 02:05:24;;;;;;;4.72;0.70;;;;;;;;;;5068286;28;20452;-64
2022/04/01 02:07:53;;;;;;;2.10;0.70;;;;;;;;;;5067874;28;20075;-64
2022/04/01 02:10:19;;;;;;;1.13;0.45;;;;;;;;;;5067908;28;20105;-65
2022/04/01 02:12:45;;;;;;;1.38;0.60;;;;;;;;;;5068407;28;20052;-65
2022/04/01 02:15:11;;;;;;;1.48;0.60;;;;;;;;;;5068244;28;20036;-66
2022/04/01 02:17:38;;;;;;;2.45;0.65;;;;;;;;;;5068141;28;20084;-65
2022/04/01 02:20:05;;;;;;;1.65;0.45;;;;;;;;;;5068087;28;20045;-65
2022/04/01 02:22:32;;;;;;;1.35;0.70;;;;;;;;;;5067691;28;20106;-66
2022/04/01 02:24:58;;;;;;;1.88;0.47;;;;;;;;;;5068269;28;20048;-66
2022/04/01 02:27:24;;;;;;;1.23;0.50;;;;;;;;;;5068373;28;20040;-66
2022/04/01 02:29:50;;;;;;;1.33;0.60;;;;;;;;;;5067848;28;20161;-66
2022/04/01 02:32:16;;;;;;;1.52;0.70;;;;;;;;;;5050040;28;20127;-64
2022/04/01 02:34:43;;;;;;;1.52;0.60;;;;;;;;;;5068148;28;20048;-66
2022/04/01 02:37:09;;;;;;;1.00;0.60;;;;;;;;;;5068272;28;20189;-64
2022/04/01 02:39:35;;;;;;;3.15;0.77;;;;;;;;;;5067793;28;20057;-66
2022/04/01 02:42:01;;;;;;;1.45;0.40;;;;;;;;;;5071341;28;20049;-66
2022/04/01 02:44:27;;;;;;;2.83;0.65;;;;;;;;;;5071939;28;20055;-66
2022/04/01 02:46:53;;;;;;;1.42;0.50;;;;;;;;;;5071762;28;20387;-66
2022/04/01 02:49:19;;;;;;;1.90;0.68;;;;;;;;;;5070904;28;20143;-66
2022/04/01 02:51:46;;;;;;;1.75;0.60;;;;;;;;;;5071896;28;20078;-66
2022/04/01 02:54:12;;;;;;;1.15;0.63;;;;;;;;;;5072105;28;20040;-65
2022/04/01 02:56:39;;;;;;;1.63;0.60;;;;;;;;;;5071213;28;20517;-65
2022/04/01 02:59:09;;;;;;;1.88;0.70;;;;;;;;;;5071710;28;20095;-66
2022/04/01 03:01:39;;;;;;;1.38;0.70;;;;;;;;;;5071497;28;20516;-65
2022/04/01 03:04:10;;;;;;;1.42;0.73;;;;;;;;;;5071265;28;20060;-65
2022/04/01 03:06:39;;;;;;;1.27;0.57;;;;;;;;;;5071325;28;20477;-66
2022/04/01 03:09:06;;;;;;;5.82;0.65;;;;;;;;;;5071392;28;20414;-65
2022/04/01 03:11:32;;;;;;;1.75;0.68;;;;;;;;;;5071079;28;20044;-65
2022/04/01 03:13:58;;;;;;;8.07;1.10;;;;;;;;;;5071038;28;20067;-64
2022/04/01 03:16:25;;;;;;;2.95;0.55;;;;;;;;;;5071266;28;20064;-64
2022/04/01 03:18:51;;;;;;;3.90;0.88;;;;;;;;;;5071394;28;20041;-64
2022/04/01 03:21:17;;;;;;;2.78;0.60;;;;;;;;;;5070595;28;20040;-64
2022/04/01 03:23:47;;;;;;;4.43;0.60;;;;;;;;;;5071006;28;20052;-64
2022/04/01 03:26:13;;;;;;;2.28;0.60;;;;;;;;;;5053108;28;20146;-64
2022/04/01 03:28:39;;;;;;;3.85;0.70;;;;;;;;;;5071607;28;20045;-64
2022/04/01 03:31:06;;;;;;;5.07;0.70;;;;;;;;;;5070497;28;20060;-65
2022/04/01 03:33:35;;;;;;;2.25;0.75;;;;;;;;;;5071101;28;20048;-65
2022/04/01 03:36:02;;;;;;;1.67;0.70;;;;;;;;;;5069795;28;20075;-67
2022/04/01 03:38:28;;;;;;;5.35;0.70;;;;;;;;;;5069016;28;20048;-66
2022/04/01 03:40:54;;;;;;;2.92;0.60;;;;;;;;;;5069796;28;20048;-66
2022/04/01 03:43:21;;;;;;;1.52;0.70;;;;;;;;;;5069443;28;20045;-65
2022/04/01 03:45:52;;;;;;;3.38;0.93;;;;;;;;;;5052017;28;20136;-65
2022/04/01 03:48:25;;;;;;;2.13;0.68;;;;;;;;;;5069126;28;20045;-65
2022/04/01 03:50:55;;;;;;;2.42;0.65;;;;;;;;;;5069520;28;20414;-66
2022/04/01 03:53:23;;;;;;;1.73;0.43;;;;;;;;;;5069385;28;20482;-66
2022/04/01 03:55:50;;;;;;;5.95;0.77;;;;;;;;;;5069639;28;20352;-66
2022/04/01 03:58:18;;;;;;;2.53;1.00;;;;;;;;;;5069124;28;20499;-66
2022/04/01 04:00:44;;;;;;;1.77;0.60;;;;;;;;;;5069572;28;20040;-66
2022/04/01 04:03:10;;;;;;;4.47;0.70;;;;;;;;;;5069755;28;20570;-66
2022/04/01 04:05:37;;;;;;;1.80;0.85;;;;;;;;;;5069050;28;20063;-65
2022/04/01 04:08:05;;;;;;;2.30;0.70;;;;;;;;;;5069505;28;20048;-65
2022/04/01 04:10:32;;;;;;;3.90;0.73;;;;;;;;;;5069262;28;20079;-66
2022/04/01 04:12:59;;;;;;;4.35;0.73;;;;;;;;;;5069054;28;20044;-66
2022/04/01 04:15:27;;;;;;;2.40;0.75;;;;;;;;;;5068917;28;20489;-66
2022/04/01 04:17:54;;;;;;;2.38;0.50;;;;;;;;;;5050903;28;20072;-66
2022/04/01 04:20:34;;;;;;;1.38;0.52;;;;;;;;;;5068941;28;20055;-66
2022/04/01 04:23:19;;;;;;;2.75;0.95;;;;;;;;;;5069033;28;20090;-65
2022/04/01 04:25:53;;;;;;;2.55;0.88;;;;;;;;;;5068787;28;20052;-66
2022/04/01 04:28:22;;;;;;;1.08;0.50;;;;;;;;;;5069036;28;20071;-67
2022/04/01 04:30:55;;;;;;;2.25;0.70;;;;;;;;;;5069293;28;20410;-66
2022/04/01 04:33:28;;;;;;;1.65;0.52;;;;;;;;;;5068838;28;20048;-66
2022/04/01 04:35:54;;;;;;;1.73;0.63;;;;;;;;;;5031175;28;1096725;-66
2022/04/01 04:38:21;;;;;;;2.90;1.15;;;;;;;;;;5069788;28;20060;-66
2022/04/01 04:40:47;;;;;;;1.45;0.70;;;;;;;;;;5069649;28;20117;-66
2022/04/01 04:43:18;;;;;;;3.15;0.70;;;;;;;;;;5069468;28;20055;-66
2022/04/01 04:45:49;;;;;;;1.98;0.70;;;;;;;;;;5069922;28;20052;-66
2022/04/01 04:48:16;;;;;;;3.78;1.10;;;;;;;;;;5069481;28;20052;-66
2022/04/01 04:50:45;;;;;;;1.20;0.60;;;;;;;;;;5069640;28;20048;-66
2022/04/01 04:53:11;;;;;;;;;;;;;;;;;;5069402;28;20493;-66
2022/04/01 04:55:38;;;;;;;3.17;0.50;;;;;;;;;;5069385;28;19920;-66
2022/04/01 04:58:04;;;;;;;2.33;0.63;;;;;;;;;;5069425;28;20041;-65
2022/04/01 05:00:30;;;;;;;1.95;0.60;;;;;;;;;;5069603;28;20036;-65
2022/04/01 05:03:23;;;;;;;3.03;1.00;;;;;;;;;;5068611;28;20489;-65
2022/04/01 05:05:56;;;;;;;2.78;0.60;;;;;;;;;;5068786;28;20082;-65
2022/04/01 05:08:41;;;;;;;1.85;0.63;;;;;;;;;;5069112;28;20044;-65
2022/04/01 05:11:29;;;;;;;2.50;0.55;;;;;;;;;;5069274;28;20036;-65
2022/04/01 05:14:06;;;;;;;1.50;0.70;;;;;;;;;;5068960;28;20052;-65
2022/04/01 05:16:32;;;;;;;2.20;0.70;;;;;;;;;;5069157;28;20056;-65
2022/04/01 05:19:09;;;;;;;2.33;0.60;;;;;;;;;;5051111;28;20516;-65
2022/04/01 05:21:39;;;;;;;2.03;0.65;;;;;;;;;;5068827;28;20052;-65
2022/04/01 05:24:07;;;;;;;1.20;0.50;;;;;;;;;;5068839;28;20049;-65
2022/04/01 05:26:43;;;;;;;2.28;0.50;;;;;;;;;;5068306;28;20040;-65
2022/04/01 05:29:13;;;;;;;2.50;0.90;;;;;;;;;;5068901;28;20091;-64
2022/04/01 05:31:55;;;;;;;2.03;0.70;;;;;;;;;;5068981;28;20087;-65
2022/04/01 05:34:40;;;;;;;1.13;0.50;;;;;;;;;;5037347;28;20061;-64
2022/04/01 05:37:07;;;;;;;1.55;0.70;;;;;;;;;;5028938;28;20128;-64
2022/04/01 05:39:34;;;;;;;1.42;0.75;;;;;;;;;;5029265;28;20426;-64
2022/04/01 05:42:00;;;;;;;1.52;0.50;;;;;;;;;;5028870;28;20118;-64
2022/04/01 05:44:26;;;;;;;1.92;0.70;;;;;;;;;;5028724;28;20065;-64
2022/04/01 05:46:54;;;;;;;2.65;0.65;;;;;;;;;;5027988;28;20041;-65
2022/04/01 05:49:24;;;;;;;2.05;0.73;;;;;;;;;;5028748;28;20052;-64
2022/04/01 05:51:50;;;;;;;;;;;;;;;;;;5029139;28;20400;-64
2022/04/01 05:54:19;;;;;;;2.45;0.60;;;;;;;;;;5028435;28;19921;-64
2022/04/01 05:56:49;;;;;;;1.40;0.57;;;;;;;;;;5028314;28;20399;-64
2022/04/01 05:59:20;;;;;;;3.65;0.77;;;;;;;;;;5028625;28;20045;-64
2022/04/01 06:01:46;;;;;;;3.38;0.65;;;;;;;;;;5027281;28;20069;-64
2022/04/01 06:04:38;;;;;;;2.20;0.70;;;;;;;;;;5028505;28;20080;-64
2022/04/01 06:07:11;;;;;;;2.38;0.60;;;;;;;;;;5027461;28;20049;-64
2022/04/01 06:09:49;;;;;;;3.95;0.70;;;;;;;;;;5028369;28;20045;-64
2022/04/01 06:12:31;;;;;;;2.00;0.73;;;;;;;;;;5027113;28;20495;-64
2022/04/01 06:15:06;;;;;;;1.55;0.60;;;;;;;;;;5028582;28;20117;-64
2022/04/01 06:17:41;;;;;;;2.38;0.95;;;;;;;;;;5028426;28;20056;-64
2022/04/01 06:20:08;;;;;;;1.30;0.70;;;;;;;;;;5027908;28;20462;-64
2022/04/01 06:22:36;;;;;;;1.55;0.60;;;;;;;;;;5028237;28;20146;-64
2022/04/01 06:25:12;;;;;;;1.38;0.60;;;;;;;;;;5028214;28;20060;-64
2022/04/01 06:27:48;;;;;;;1.40;0.60;;;;;;;;;;5028117;28;20049;-64
2022/04/01 06:30:15;;;;;;;1.20;0.50;;;;;;;;;;5028359;28;20072;-64
2022/04/01 06:32:50;;;;;;;5.95;0.70;;;;;;;;;;5028418;28;20060;-65
2022/04/01 06:35:25;;;;;;;3.33;0.77;;;;;;;;;;5040662;28;20053;-65
2022/04/01 06:37:51;;;;;;;2.25;0.52;;;;;;;;;;5046749;28;20494;-64
2022/04/01 06:40:22;;;;;;;2.33;0.60;;;;;;;;;;5047819;28;20083;-66
2022/04/01 06:42:50;;;;;;;2.45;0.70;;;;;;;;;;5047767;28;20099;-64
2022/04/01 06:45:16;;;;;;;0.97;0.60;;;;;;;;;;5047576;28;20060;-65
2022/04/01 06:47:44;;;;;;;3.22;0.60;;;;;;;;;;5047689;28;20487;-65
2022/04/01 06:50:10;;;;;;;2.55;0.77;;;;;;;;;;5046103;28;20084;-65
2022/04/01 06:52:36;;;;;;;1.85;0.52;;;;;;;;;;5046667;28;20057;-65
2022/04/01 06:55:02;;;;;;;3.83;0.80;;;;;;;;;;5047658;28;20363;-65
2022/04/01 06:57:28;;;;;;;19.40;1.00;;;;;;;;;;5046347;28;20151;-65
2022/04/01 06:59:54;;;;;;;4.45;0.60;;;;;;;;;;5047504;28;20052;-65
2022/04/01 07:02:21;;;;;;;3.63;0.80;;;;;;;;;;5047331;28;20183;-65
2022/04/01 07:04:46;;;;;;;2.42;0.82;;;;;;;;;;5047768;28;20048;-65
2022/04/01 07:07:13;;;;;;;4.43;0.65;;;;;;;;;;5047875;28;20382;-64
2022/04/01 07:09:39;;;;;;;1.88;0.52;;;;;;;;;;5047472;28;20086;-64
2022/04/01 07:12:05;;;;;;;1.80;0.57;;;;;;;;;;5046756;28;20090;-64
2022/04/01 07:14:31;;;;;;;7.07;0.93;;;;;;;;;;5047798;28;20060;-66
2022/04/01 07:16:58;;;;;;;3.08;0.80;;;;;;;;;;5048000;28;20068;-65
2022/04/01 07:19:24;;;;;;;1.13;0.50;;;;;;;;;;5047282;28;20053;-65
2022/04/01 07:21:50;;;;;;;1.65;0.68;;;;;;;;;;5048090;28;20466;-65
2022/04/01 07:24:17;;;;;;;2.20;1.10;;;;;;;;;;5047452;28;20396;-64
2022/04/01 07:26:44;;;;;;;1.98;0.65;;;;;;;;;;5048800;28;20095;-65
2022/04/01 07:29:10;;;;;;;1.55;0.63;;;;;;;;;;5051665;28;20473;-65
2022/04/01 07:34:26;;;;;;;2.97;0.60;;;;;;;;;;5051246;28;20436;-66
2022/04/01 07:36:52;;;;;;;2.67;0.63;;;;;;;;;;5049832;28;20514;-65
2022/04/01 07:39:18;;;;;;;2.25;0.60;;;;;;;;;;5050297;28;20565;-65
2022/04/01 07:41:45;;;;;;;5.32;0.80;;;;;;;;;;5050876;28;20060;-65
2022/04/01 07:44:11;;;;;;;2.38;0.70;;;;;;;;;;5050952;28;20414;-65
2022/04/01 07:46:37;;;;;;;2.38;0.55;;;;;;;;;;5050962;28;20124;-65
2022/04/01 07:49:03;;;;;;;2.20;0.73;;;;;;;;;;5050908;28;20548;-65
2022/04/01 07:51:29;;;;;;;2.35;0.75;;;;;;;;;;5050442;28;20045;-65
2022/04/01 07:53:55;;;;;;;2.38;0.73;;;;;;;;;;5050843;28;20123;-65
2022/04/01 07:56:21;;;;;;;1.33;0.70;;;;;;;;;;5050913;28;20859;-66
2022/04/01 07:58:47;;;;;;;2.00;0.70;;;;;;;;;;5050143;28;20363;-65
2022/04/01 08:01:13;;;;;;;2.05;0.80;;;;;;;;;;5049943;28;20065;-65
2022/04/01 08:03:44;;;;;;;3.55;0.60;;;;;;;;;;5050914;28;20052;-65
2022/04/01 08:06:10;;;;;;;2.42;0.70;;;;;;;;;;5050738;28;20457;-65
2022/04/01 08:08:38;;;;;;;1.58;0.60;;;;;;;;;;5049481;28;20517;-64
2022/04/01 08:11:04;;;;;;;1.42;0.50;;;;;;;;;;5050278;28;20124;-64
2022/04/01 08:13:30;;;;;;;1.92;0.73;;;;;;;;;;5049997;28;20051;-64
2022/04/01 08:15:56;;;;;;;3.25;0.88;;;;;;;;;;5050161;28;20041;-65
2022/04/01 08:18:23;;;;;;;2.78;0.60;;;;;;;;;;5050006;28;20132;-65
2022/04/01 08:20:49;;;;;;;5.60;0.80;;;;;;;;;;5049676;28;20044;-64
2022/04/01 08:23:15;;;;;;;2.50;0.82;;;;;;;;;;5049530;28;20091;-65
2022/04/01 08:25:41;;;;;;;2.10;0.70;;;;;;;;;;5049746;28;20127;-65
2022/04/01 08:28:07;;;;;;;2.53;0.80;;;;;;;;;;5049891;28;20079;-66
2022/04/01 08:30:34;;;;;;;6.50;0.50;;;;;;;;;;5048725;28;20087;-67
2022/04/01 08:33:00;;;;;;;2.38;0.55;;;;;;;;;;5048233;28;20539;-66
2022/04/01 08:35:28;;;;;;;2.10;0.60;;;;;;;;;;5064168;28;20052;-66
2022/04/01 08:37:55;;;;;;;4.05;0.40;;;;;;;;;;5068349;28;20419;-65
2022/04/01 08:40:22;;;;;;;2.25;0.63;;;;;;;;;;5068384;28;20095;-65
2022/04/01 08:42:48;;;;;;;2.63;0.70;;;;;;;;;;5068702;28;20041;-66
2022/04/01 08:45:18;;;;;;;1.33;0.55;;;;;;;;;;5069437;28;20043;-67
2022/04/01 08:47:44;;;;;;;1.52;0.73;;;;;;;;;;5067483;28;20410;-67
2022/04/01 08:50:10;;;;;;;1.08;0.47;;;;;;;;;;5070052;28;20461;-66
2022/04/01 08:52:37;;;;;;;1.80;0.70;;;;;;;;;;5069363;28;20044;-67
2022/04/01 08:55:04;;;;;;;1.30;0.70;;;;;;;;;;5069552;28;20045;-66
2022/04/01 08:57:37;;;;;;;1.58;0.60;;;;;;;;;;5069240;28;20068;-66
2022/04/01 09:00:23;;;;;;;2.92;0.70;;;;;;;;;;5068747;28;20045;-65
2022/04/01 09:02:58;;;;;;;1.80;0.60;;;;;;;;;;5068806;28;20038;-66
2022/04/01 09:05:24;;;;;;;1.30;0.73;;;;;;;;;;5068786;28;20090;-65
2022/04/01 09:07:59;;;;;;;3.00;0.70;;;;;;;;;;5068227;28;20084;-65
2022/04/01 09:10:25;;;;;;;1.73;0.80;;;;;;;;;;5069111;28;20116;-65
2022/04/01 09:12:51;;;;;;;3.78;0.85;;;;;;;;;;5069278;28;20063;-65
2022/04/01 09:15:19;;;;;;;1.55;0.55;;;;;;;;;;5068246;28;20520;-65
2022/04/01 09:17:46;;;;;;;5.57;0.80;;;;;;;;;;5068006;28;20044;-65
2022/04/01 09:20:14;;;;;;;2.13;0.80;;;;;;;;;;5050075;28;20045;-64
2022/04/01 09:22:40;;;;;;;1.85;0.80;;;;;;;;;;5066951;28;20090;-64
2022/04/01 09:25:09;;;;;;;11.13;1.02;;;;;;;;;;5056402;28;20056;-64
2022/04/01 09:27:35;;;;;;;;;;;;;;;;;;5067385;28;20047;-65
2022/04/01 09:30:01;;;;;;;2.00;0.60;;;;;;;;;;5067010;28;19920;-64
2022/04/01 09:32:36;;;;;;;5.22;1.60;;;;;;;;;;5066697;28;20383;-64
2022/04/01 09:35:02;;;;;;;3.97;0.80;;;;;;;;;;5067307;28;20099;-65
2022/04/01 09:37:38;;;;;;;2.63;0.70;;;;;;;;;;5068165;28;20106;-65
2022/04/01 09:40:04;;;;;;;2.95;0.70;;;;;;;;;;5065932;28;20048;-65
2022/04/01 09:42:30;;;;;;;5.72;0.90;;;;;;;;;;5068221;28;20048;-64
2022/04/01 09:45:00;;;;;;;2.70;0.70;;;;;;;;;;5067758;28;20048;-64
2022/04/01 09:47:26;;;;;;;2.17;1.00;;;;;;;;;;5067919;28;20076;-64
2022/04/01 09:49:54;;;;;;;3.33;0.90;;;;;;;;;;5067579;28;20533;-64
2022/04/01 09:52:22;;;;;;;5.38;0.90;;;;;;;;;;5067101;28;20467;-65
2022/04/01 09:54:52;;;;;;;3.28;0.65;;;;;;;;;;5067717;28;20052;-64
2022/04/01 09:57:19;;;;;;;2.40;0.77;;;;;;;;;;5067638;28;20076;-65
2022/04/01 09:59:46;;;;;;;3.72;1.13;;;;;;;;;;5067417;28;20048;-65
2022/04/01 10:02:13;;;;;;;2.22;0.68;;;;;;;;;;5067819;28;20048;-64
2022/04/01 10:04:39;;;;;;;2.38;1.10;;;;;;;;;;5066532;28;20048;-65
2022/04/01 10:07:05;;;;;;;1.40;0.70;;;;;;;;;;5064485;28;20048;-65
2022/04/01 10:09:31;;;;;;;3.10;0.65;;;;;;;;;;5065721;28;20126;-64
2022/04/01 10:11:59;;;;;;;2.20;0.70;;;;;;;;;;5066253;28;20086;-65
2022/04/01 10:14:29;;;;;;;2.83;1.45;;;;;;;;;;5065676;28;20044;-65
2022/04/01 10:16:56;;;;;;;1.48;0.88;;;;;;;;;;5064744;28;20128;-65
2022/04/01 10:19:24;;;;;;;1.67;0.68;;;;;;;;;;5064846;28;20516;-65
2022/04/01 10:21:51;;;;;;;1.65;0.70;;;;;;;;;;5065834;28;20045;-65
2022/04/01 10:24:35;;;;;;;2.75;1.00;;;;;;;;;;5065116;28;20052;-65
2022/04/01 10:27:04;;;;;;;2.25;0.70;;;;;;;;;;5051366;28;20047;-65
2022/04/01 10:29:31;;;;;;;3.70;1.15;;;;;;;;;;5065126;28;20071;-65
2022/04/01 10:32:17;;;;;;;1.27;0.70;;;;;;;;;;5066260;28;20055;-65
2022/04/01 10:34:46;;;;;;;2.35;0.70;;;;;;;;;;5064402;28;20102;-66
2022/04/01 10:37:14;;;;;;;1.85;0.70;;;;;;;;;;5066408;28;20053;-65
2022/04/01 10:39:49;;;;;;;2.40;0.80;;;;;;;;;;5065678;28;20044;-64
2022/04/01 10:42:16;;;;;;;2.55;0.82;;;;;;;;;;5065033;28;20375;-65
2022/04/01 10:44:50;;;;;;;3.83;0.70;;;;;;;;;;5065392;28;20048;-64
2022/04/01 10:47:16;;;;;;;1.70;0.73;;;;;;;;;;5065417;28;20060;-65
2022/04/01 10:52:27;;;;;;;0.93;0.65;;;;;;;;;;5064286;28;20063;-65
2022/04/01 10:55:13;;;;;;;1.77;0.73;;;;;;;;;;5064840;28;20423;-67
2022/04/01 10:57:44;;;;;;;3.78;0.73;;;;;;;;;;5064762;28;20045;-67
2022/04/01 11:00:15;;;;;;;1.67;0.82;;;;;;;;;;5066781;28;20453;-66
2022/04/01 11:02:42;;;;;;;0.93;0.52;;;;;;;;;;5068803;28;20040;-66
2022/04/01 11:05:29;;;;;;;1.90;0.70;;;;;;;;;;5068456;28;20044;-66
2022/04/01 11:08:13;;;;;;;2.10;0.63;;;;;;;;;;5068563;28;20531;-66
2022/04/01 11:10:39;;;;;;;1.35;0.60;;;;;;;;;;5069846;28;20040;-66
2022/04/01 11:13:05;;;;;;;1.35;0.70;;;;;;;;;;5069684;28;20422;-67
2022/04/01 11:15:31;;;;;;;1.83;0.90;;;;;;;;;;5069408;28;20452;-67
2022/04/01 11:17:57;;;;;;;1.38;0.70;;;;;;;;;;5068300;28;20074;-68
2022/04/01 11:20:27;;;;;;;1.33;0.63;;;;;;;;;;5068709;28;20090;-66
2022/04/01 11:22:54;;;;;;;1.27;0.60;;;;;;;;;;5068835;28;20140;-68
2022/04/01 11:25:27;;;;;;;0.93;0.45;;;;;;;;;;5052017;28;20048;-68
2022/04/01 11:28:14;;;;;;;1.63;0.70;;;;;;;;;;5069750;28;20115;-68
2022/04/01 11:30:40;;;;;;;1.77;0.63;;;;;;;;;;5068482;28;20102;-67
2022/04/01 11:33:08;;;;;;;1.75;0.90;;;;;;;;;;5068885;28;20044;-68
2022/04/01 11:35:36;;;;;;;0.93;0.60;;;;;;;;;;5068903;28;20105;-67
2022/04/01 11:38:03;;;;;;;1.52;0.60;;;;;;;;;;5068713;28;20044;-68
2022/04/01 11:40:31;;;;;;;1.10;0.55;;;;;;;;;;5069728;28;20041;-67
2022/04/01 11:43:03;;;;;;;1.38;0.60;;;;;;;;;;5068315;28;20119;-66
2022/04/01 11:45:37;;;;;;;1.02;0.50;;;;;;;;;;5069522;28;20075;-67
2022/04/01 11:48:13;;;;;;;0.95;0.52;;;;;;;;;;5069619;28;20041;-67
2022/04/01 11:50:43;;;;;;;0.98;0.50;;;;;;;;;;5069439;28;20041;-67
2022/04/01 11:53:18;;;;;;;1.77;0.68;;;;;;;;;;5070098;28;20076;-67
2022/04/01 11:55:44;;;;;;;0.95;0.47;;;;;;;;;;5062334;28;20040;-67
2022/04/01 11:58:10;;;;;;;5.18;0.60;;;;;;;;;;5068727;28;20070;-67
2022/04/01 12:00:36;;;;;;;1.27;0.63;;;;;;;;;;5068238;28;20063;-68
2022/04/01 12:03:02;;;;;;;1.58;0.60;;;;;;;;;;5068189;28;20048;-68
2022/04/01 12:05:31;;;;;;;31.35;1.38;;;;;;;;;;5068432;28;20474;-69
2022/04/01 12:10:43;;;;;;;16.63;1.13;;;;;;;;;;5066005;28;20103;-67
2022/04/01 12:13:10;;;;;;;5.88;0.88;;;;;;;;;;5068135;28;20048;-67
2022/04/01 12:15:37;;;;;;;10.25;0.82;;;;;;;;;;5068366;28;20124;-67
2022/04/01 12:18:08;;;;;;;6.93;1.40;;;;;;;;;;5068527;28;20137;-67
2022/04/01 12:21:00;;;;;;;4.97;0.75;;;;;;;;;;5066338;28;20525;-67
2022/04/01 12:23:30;;;;;;;3.95;1.10;;;;;;;;;;5065346;28;20060;-68
2022/04/01 12:25:57;;;;;;;5.50;0.88;;;;;;;;;;5068632;28;20048;-65
2022/04/01 12:28:39;;;;;;;3.05;0.77;;;;;;;;;;5068074;28;20055;-66
2022/04/01 12:31:05;;;;;;;4.90;1.20;;;;;;;;;;5068023;28;20044;-66
2022/04/01 12:33:32;;;;;;;6.43;0.98;;;;;;;;;;5065755;28;21327;-66
2022/04/01 12:36:04;;;;;;;4.50;0.77;;;;;;;;;;5054779;28;20052;-66
2022/04/01 12:38:34;;;;;;;4.70;0.70;;;;;;;;;;5067315;28;20498;-66
2022/04/01 12:41:04;;;;;;;6.00;0.88;;;;;;;;;;5067255;28;20048;-66
2022/04/01 12:43:41;;;;;;;6.18;0.85;;;;;;;;;;5067189;28;20036;-66
2022/04/01 12:46:21;;;;;;;4.68;0.82;;;;;;;;;;5065561;28;20040;-66
2022/04/01 12:48:48;;;;;;;8.43;0.80;;;;;;;;;;5067651;28;20042;-66
2022/04/01 12:51:25;;;;;;;2.72;0.70;;;;;;;;;;5067804;28;20131;-65
2022/04/01 12:54:02;;;;;;;2.25;0.88;;;;;;;;;;5062044;28;20055;-65
2022/04/01 12:56:31;;;;;;;2.05;0.75;;;;;;;;;;5067315;28;20044;-66
2022/04/01 12:58:58;;;;;;;2.17;0.82;;;;;;;;;;5066991;28;20048;-66
2022/04/01 13:01:28;;;;;;;1.33;0.68;;;;;;;;;;5068162;28;20131;-66
2022/04/01 13:03:56;;;;;;;6.68;1.05;;;;;;;;;;5066782;28;20549;-64
2022/04/01 13:06:23;;;;;;;2.00;0.93;;;;;;;;;;5066855;28;20040;-65
2022/04/01 13:09:09;;;;;;;2.45;0.73;;;;;;;;;;5067391;28;20515;-65
2022/04/01 13:11:37;;;;;;;2.10;0.75;;;;;;;;;;5066704;28;20056;-66
2022/04/01 13:14:04;;;;;;;4.35;0.77;;;;;;;;;;5066981;28;20422;-66
2022/04/01 13:16:40;;;;;;;1.58;0.65;;;;;;;;;;5066707;28;20032;-65
2022/04/01 13:19:18;;;;;;;1.92;0.60;;;;;;;;;;5066896;28;20133;-65
2022/04/01 13:21:44;;;;;;;2.38;0.80;;;;;;;;;;5067389;28;20052;-65
2022/04/01 13:24:10;;;;;;;1.58;0.73;;;;;;;;;;5065531;28;20109;-65
2022/04/01 13:26:36;;;;;;;1.55;0.70;;;;;;;;;;5067771;28;20033;-65
2022/04/01 13:29:03;;;;;;;2.08;0.90;;;;;;;;;;5053740;28;20076;-67
2022/04/01 13:31:29;;;;;;;7.05;0.80;;;;;;;;;;5066086;28;20048;-65
2022/04/01 13:33:56;;;;;;;4.53;1.00;;;;;;;;;;5067058;28;20040;-66
2022/04/01 13:36:23;;;;;;;5.68;0.68;;;;;;;;;;5067472;28;20923;-67
2022/04/01 13:38:50;;;;;;;4.18;1.40;;;;;;;;;;5052651;28;20387;-66
2022/04/01 13:41:16;;;;;;;4.72;1.02;;;;;;;;;;5065304;28;20049;-65
2022/04/01 13:43:42;;;;;;;24.70;2.72;;;;;;;;;;5066024;28;20089;-68
2022/04/01 13:46:08;;;;;;;1.95;0.60;;;;;;;;;;5067292;28;20058;-65
2022/04/01 13:48:35;;;;;;;2.58;0.70;;;;;;;;;;5067342;28;20032;-66
2022/04/01 13:51:02;;;;;;;3.53;0.60;;;;;;;;;;5067144;28;20431;-66
2022/04/01 13:53:29;;;;;;;5.25;0.73;;;;;;;;;;5064597;28;20297;-65
2022/04/01 13:55:55;;;;;;;3.92;0.70;;;;;;;;;;5067897;28;20040;-66
2022/04/01 13:58:21;;;;;;;1.77;0.80;;;;;;;;;;5053157;28;20615;-66
2022/04/01 14:00:47;;;;;;;1.33;0.70;;;;;;;;;;5065716;28;20367;-66
2022/04/01 14:03:13;;;;;;;4.57;1.08;;;;;;;;;;5067032;28;20040;-67
2022/04/01 14:05:39;;;;;;;1.60;0.50;;;;;;;;;;5066789;28;20437;-67
2022/04/01 14:08:05;;;;;;;1.88;0.70;;;;;;;;;;5065865;28;20049;-67
2022/04/01 14:10:31;;;;;;;2.22;0.70;;;;;;;;;;5066368;28;20664;-67
2022/04/01 14:12:57;;;;;;;2.35;0.60;;;;;;;;;;5066017;28;20078;-66
2022/04/01 14:15:24;;;;;;;7.82;0.93;;;;;;;;;;5065528;28;20509;-66
2022/04/01 14:17:50;;;;;;;1.17;0.57;;;;;;;;;;5064144;28;20036;-66
2022/04/01 14:20:16;;;;;;;1.77;0.60;;;;;;;;;;5066417;28;20059;-66
2022/04/01 14:22:42;;;;;;;3.72;0.85;;;;;;;;;;5067217;28;20032;-67
2022/04/01 14:25:09;;;;;;;3.08;0.80;;;;;;;;;;5066821;28;20048;-66
2022/04/01 14:27:35;;;;;;;1.75;0.63;;;;;;;;;;5066855;28;20041;-66
2022/04/01 14:30:21;;;;;;;0.40;0.40;;;;;;;;;;5067141;28;20402;-66
2022/04/01 14:32:52;;;;;;;2.85;0.77;;;;;;;;;;5066956;28;20127;-66
2022/04/01 14:35:19;;;;;;;2.25;0.60;;;;;;;;;;5064968;28;20421;-66
2022/04/01 14:37:46;;;;;;;1.63;0.60;;;;;;;;;;5071366;28;20082;-68
2022/04/01 14:40:12;;;;;;;1.88;0.60;;;;;;;;;;5071707;28;20516;-66
2022/04/01 14:42:38;;;;;;;2.40;0.70;;;;;;;;;;5070536;28;20036;-65
2022/04/01 14:45:05;;;;;;;2.15;0.70;;;;;;;;;;5070509;28;20127;-65
2022/04/01 14:47:31;;;;;;;1.77;0.70;;;;;;;;;;5069566;28;20036;-65
2022/04/01 14:49:57;;;;;;;1.38;0.47;;;;;;;;;;5069318;28;20465;-65
2022/04/01 14:52:24;;;;;;;2.17;0.65;;;;;;;;;;5068054;28;20119;-66
2022/04/01 14:54:50;;;;;;;1.48;0.70;;;;;;;;;;5067046;28;20040;-65
2022/04/01 14:57:18;;;;;;;1.60;0.70;;;;;;;;;;5069838;28;20044;-64
2022/04/01 14:59:44;;;;;;;14.15;1.70;;;;;;;;;;5065103;28;20144;-68
2022/04/01 15:02:10;;;;;;;23.17;3.20;;;;;;;;;;5069097;28;20032;-65
2022/04/01 15:04:37;;;;;;;24.92;2.13;;;;;;;;;;5054941;28;20045;-67
2022/04/01 15:07:03;;;;;;;13.82;1.52;;;;;;;;;;5070507;28;20036;-65